Time;durP1;ratioP1;P1;durP2;ratioP2;P2;SDS_P1;SDS_P2;PMS_P1;PMS_P2;Temp;Humidity;BMP_temperature;BMP_pressure;BME280_temperature;BME280_humidity;BME280_pressure;Samples;Min_cycle;Max_cycle;Signal;HPM_P1;HPM_P2
2021/08/30 00:01:48;;;;;;;;;;;16.30;99.90;;;;;;5097403;27;19919;-85
2021/08/30 00:04:14;;;;;;;;;;;16.30;99.90;;;;;;5111536;27;20010;-84
2021/08/30 00:06:41;;;;;;;;;;;16.30;99.90;;;;;;5090768;28;19920;-85
2021/08/30 00:09:07;;;;;;;;;;;16.30;99.90;;;;;;5092143;27;20391;-84
2021/08/30 00:11:33;;;;;;;;;;;16.30;99.90;;;;;;5096580;27;19995;-85
2021/08/30 00:13:58;;;;;;;;;;;16.30;99.90;;;;;;5112258;27;20370;-84
2021/08/30 00:16:24;;;;;;;;;;;16.30;99.90;;;;;;5111387;27;19998;-85
2021/08/30 00:18:50;;;;;;;;;;;16.30;99.90;;;;;;5092010;28;19919;-85
2021/08/30 00:21:16;;;;;;;;;;;16.30;99.90;;;;;;5095889;27;19942;-84
2021/08/30 00:23:42;;;;;;;;;;;16.30;99.90;;;;;;5074999;28;19947;-85
2021/08/30 00:26:07;;;;;;;;;;;16.30;99.90;;;;;;5106609;27;19924;-84
2021/08/30 00:28:33;;;;;;;;;;;16.30;99.90;;;;;;5112023;27;20336;-84
2021/08/30 00:30:58;;;;;;;;;;;16.30;99.90;;;;;;5092868;27;19967;-85
2021/08/30 00:33:24;;;;;;;;;;;16.30;99.90;;;;;;5093960;27;20424;-84
2021/08/30 00:35:49;;;;;;;;;;;16.30;99.90;;;;;;5125799;27;19919;-85
2021/08/30 00:38:15;;;;;;;;;;;16.30;99.90;;;;;;5079487;28;19927;-85
2021/08/30 00:40:41;;;;;;;;;;;16.40;99.90;;;;;;5079826;28;19970;-84
2021/08/30 00:43:08;;;;;;;;;;;16.40;99.90;;;;;;5074599;28;20268;-84
2021/08/30 00:45:34;;;;;;;;;;;16.40;99.90;;;;;;5109112;27;20331;-84
2021/08/30 00:48:01;;;;;;;;;;;16.40;99.90;;;;;;5108518;27;19938;-85
2021/08/30 00:50:28;;;;;;;;;;;16.40;99.90;;;;;;5094457;27;19927;-85
2021/08/30 00:52:53;;;;;;;;;;;16.40;99.90;;;;;;5094804;27;20057;-85
2021/08/30 00:55:19;;;;;;;;;;;16.40;99.90;;;;;;5102788;28;19994;-84
2021/08/30 00:57:45;;;;;;;;;;;16.40;99.90;;;;;;5094615;27;19934;-85
2021/08/30 01:00:11;;;;;;;;;;;16.40;99.90;;;;;;5113933;27;19927;-84
2021/08/30 01:02:38;;;;;;;;;;;16.40;99.90;;;;;;5115156;27;20063;-84
2021/08/30 01:05:04;;;;;;;;;;;16.40;99.90;;;;;;5122837;27;19923;-84
2021/08/30 01:07:29;;;;;;;;;;;16.40;99.90;;;;;;5094902;28;19923;-84
2021/08/30 01:10:04;;;;;;;;;;;16.40;99.90;;;;;;5111061;28;20313;-85
2021/08/30 01:12:35;;;;;;;;;;;16.40;99.90;;;;;;5094387;28;19971;-85
2021/08/30 01:15:03;;;;;;;;;;;16.40;99.90;;;;;;5119049;28;19962;-84
2021/08/30 01:17:30;;;;;;;;;;;16.40;99.90;;;;;;5095863;27;19923;-84
2021/08/30 01:20:02;;;;;;;;;;;16.40;99.90;;;;;;5098322;27;20846;-85
2021/08/30 01:22:29;;;;;;;;;;;16.40;99.90;;;;;;5117824;27;19942;-84
2021/08/30 01:24:55;;;;;;;;;;;16.40;99.90;;;;;;5107934;27;19926;-84
2021/08/30 01:27:21;;;;;;;;;;;16.40;99.90;;;;;;5115482;27;20290;-84
2021/08/30 01:29:52;;;;;;;;;;;16.40;99.90;;;;;;5081443;27;19947;-85
2021/08/30 01:32:24;;;;;;;;;;;16.40;99.90;;;;;;5131803;27;19930;-85
2021/08/30 01:34:49;;;;;;;;;;;16.40;99.90;;;;;;5108479;27;20055;-85
2021/08/30 01:37:15;;;;;;;;;;;16.30;99.90;;;;;;5084305;27;20018;-85
2021/08/30 01:39:41;;;;;;;;;;;16.30;99.90;;;;;;5098254;27;19920;-84
2021/08/30 01:42:07;;;;;;;;;;;16.30;99.90;;;;;;5094783;27;19957;-84
2021/08/30 01:44:32;;;;;;;;;;;16.30;99.90;;;;;;5116981;27;20072;-85
2021/08/30 01:46:58;;;;;;;;;;;16.30;99.90;;;;;;5111331;27;19921;-84
2021/08/30 01:49:25;;;;;;;;;;;16.30;99.90;;;;;;5099055;27;19923;-84
2021/08/30 01:51:51;;;;;;;;;;;16.20;99.90;;;;;;5107260;27;19930;-85
2021/08/30 01:54:17;;;;;;;;;;;16.20;99.90;;;;;;5111747;27;19926;-85
2021/08/30 01:56:47;;;;;;;;;;;16.30;99.90;;;;;;5117509;27;19923;-84
2021/08/30 02:01:59;;;;;;;;;;;16.30;99.90;;;;;;5126533;27;19922;-85
2021/08/30 02:04:24;;;;;;;;;;;16.30;99.90;;;;;;5085906;27;20366;-84
2021/08/30 02:06:50;;;;;;;;;;;16.30;99.90;;;;;;5101013;27;19919;-84
2021/08/30 02:09:15;;;;;;;;;;;16.40;99.90;;;;;;5087752;27;19934;-84
2021/08/30 02:11:41;;;;;;;;;;;16.40;99.90;;;;;;5086197;27;19945;-84
2021/08/30 02:14:07;;;;;;;;;;;16.40;99.90;;;;;;5100696;27;19919;-85
2021/08/30 02:16:33;;;;;;;;;;;16.40;99.90;;;;;;5115784;27;19923;-85
2021/08/30 02:18:59;;;;;;;;;;;16.40;99.90;;;;;;5097157;27;19924;-85
2021/08/30 02:21:33;;;;;;;;;;;16.40;99.90;;;;;;5116627;27;19919;-84
2021/08/30 02:24:01;;;;;;;;;;;16.40;99.90;;;;;;5097361;27;19923;-84
2021/08/30 02:26:31;;;;;;;;;;;16.40;99.90;;;;;;5098698;27;19923;-84
2021/08/30 02:28:58;;;;;;;;;;;16.40;99.90;;;;;;5110034;27;19919;-84
2021/08/30 02:31:25;;;;;;;;;;;16.40;99.90;;;;;;5134240;27;19919;-85
2021/08/30 02:33:51;;;;;;;;;;;16.50;99.90;;;;;;5108641;27;20379;-84
2021/08/30 02:36:19;;;;;;;;;;;16.50;99.90;;;;;;5091241;27;20393;-84
2021/08/30 02:38:45;;;;;;;;;;;16.50;99.90;;;;;;5111331;27;20330;-85
2021/08/30 02:41:11;;;;;;;;;;;16.50;99.90;;;;;;5123127;27;19915;-84
2021/08/30 02:43:36;;;;;;;;;;;16.50;99.90;;;;;;5098224;27;20302;-85
2021/08/30 02:46:02;;;;;;;;;;;16.50;99.90;;;;;;5107108;27;20014;-84
2021/08/30 02:48:28;;;;;;;;;;;16.50;99.90;;;;;;5116111;27;19927;-84
2021/08/30 02:50:55;;;;;;;;;;;16.50;99.90;;;;;;5124671;27;19927;-85
2021/08/30 02:53:21;;;;;;;;;;;16.50;99.90;;;;;;5110895;27;19923;-84
2021/08/30 02:55:47;;;;;;;;;;;16.50;99.90;;;;;;5086127;27;19926;-84
2021/08/30 02:58:13;;;;;;;;;;;16.60;99.90;;;;;;5101177;27;19923;-84
2021/08/30 03:00:39;;;;;;;;;;;16.60;99.90;;;;;;5114007;27;19964;-84
2021/08/30 03:03:05;;;;;;;;;;;16.60;99.90;;;;;;5110208;27;19927;-84
2021/08/30 03:05:31;;;;;;;;;;;16.60;99.90;;;;;;5080106;27;19923;-84
2021/08/30 03:07:57;;;;;;;;;;;16.60;99.90;;;;;;5100435;27;20294;-85
2021/08/30 03:10:23;;;;;;;;;;;16.60;99.90;;;;;;5096079;27;19948;-85
2021/08/30 03:12:51;;;;;;;;;;;16.60;99.90;;;;;;5100189;27;19923;-84
2021/08/30 03:15:18;;;;;;;;;;;16.60;99.90;;;;;;5096716;27;19923;-84
2021/08/30 03:17:45;;;;;;;;;;;16.60;99.90;;;;;;5098794;27;19980;-85
2021/08/30 03:20:22;;;;;;;;;;;16.60;99.90;;;;;;5096823;27;19924;-84
2021/08/30 03:22:49;;;;;;;;;;;16.60;99.90;;;;;;5104433;27;19919;-85
2021/08/30 03:25:15;;;;;;;;;;;16.60;99.90;;;;;;5095622;27;19919;-85
2021/08/30 03:27:45;;;;;;;;;;;16.60;99.90;;;;;;5089927;27;19923;-85
2021/08/30 03:30:11;;;;;;;;;;;16.60;99.90;;;;;;5122551;27;19953;-85
2021/08/30 03:32:37;;;;;;;;;;;16.60;99.90;;;;;;5099839;27;19923;-84
2021/08/30 03:35:04;;;;;;;;;;;16.60;99.90;;;;;;5097857;27;19955;-84
2021/08/30 03:37:30;;;;;;;;;;;16.60;99.90;;;;;;5096545;27;19944;-85
2021/08/30 03:39:55;;;;;;;;;;;16.60;99.90;;;;;;5096522;27;19933;-84
2021/08/30 03:42:23;;;;;;;;;;;16.60;99.90;;;;;;5102043;27;19923;-84
2021/08/30 03:44:49;;;;;;;;;;;16.60;99.90;;;;;;5115868;27;19962;-86
2021/08/30 03:47:15;;;;;;;;;;;16.50;99.90;;;;;;5099427;27;19977;-85
2021/08/30 03:49:41;;;;;;;;;;;16.50;99.90;;;;;;5094799;27;19988;-86
2021/08/30 03:52:08;;;;;;;;;;;16.50;99.90;;;;;;5099291;27;19949;-85
2021/08/30 03:54:33;;;;;;;;;;;16.50;99.90;;;;;;5115821;27;19939;-84
2021/08/30 03:56:59;;;;;;;;;;;16.50;99.90;;;;;;5116135;27;20468;-84
2021/08/30 03:59:28;;;;;;;;;;;16.50;99.90;;;;;;5107925;27;19919;-85
2021/08/30 04:01:55;;;;;;;;;;;16.50;99.90;;;;;;5116030;27;19919;-84
2021/08/30 04:04:22;;;;;;;;;;;16.40;99.90;;;;;;5090198;27;19923;-85
2021/08/30 04:06:48;;;;;;;;;;;16.40;99.90;;;;;;5095552;27;19923;-85
2021/08/30 04:09:18;;;;;;;;;;;16.40;99.90;;;;;;5090002;27;19923;-85
2021/08/30 04:11:44;;;;;;;;;;;16.40;99.90;;;;;;5099042;27;19923;-84
2021/08/30 04:14:11;;;;;;;;;;;16.40;99.90;;;;;;5095031;27;19975;-85
2021/08/30 04:16:37;;;;;;;;;;;16.40;99.90;;;;;;5115685;27;19926;-85
2021/08/30 04:19:03;;;;;;;;;;;16.30;99.90;;;;;;5106459;27;19920;-84
2021/08/30 04:21:28;;;;;;;;;;;16.30;99.90;;;;;;5100282;27;19997;-85
2021/08/30 04:23:54;;;;;;;;;;;16.30;99.90;;;;;;5093691;27;20006;-84
2021/08/30 04:26:19;;;;;;;;;;;16.30;99.90;;;;;;5112423;27;19926;-84
2021/08/30 04:28:45;;;;;;;;;;;16.30;99.90;;;;;;5101474;27;20437;-85
2021/08/30 04:31:10;;;;;;;;;;;16.30;99.90;;;;;;5101796;27;20407;-84
2021/08/30 04:33:36;;;;;;;;;;;16.30;99.90;;;;;;5102987;27;19934;-84
2021/08/30 04:36:02;;;;;;;;;;;16.20;99.90;;;;;;5120708;27;20060;-85
2021/08/30 04:38:28;;;;;;;;;;;16.20;99.90;;;;;;5120652;27;19929;-84
2021/08/30 04:40:53;;;;;;;;;;;16.20;99.90;;;;;;5078164;27;20358;-84
2021/08/30 04:43:19;;;;;;;;;;;16.20;99.90;;;;;;5121257;27;19919;-85
2021/08/30 04:45:45;;;;;;;;;;;16.20;99.90;;;;;;5096736;27;20404;-85
2021/08/30 04:48:10;;;;;;;;;;;16.20;99.90;;;;;;5094627;27;19923;-85
2021/08/30 04:50:37;;;;;;;;;;;16.30;99.90;;;;;;5109746;27;19948;-85
2021/08/30 04:53:02;;;;;;;;;;;16.30;99.90;;;;;;5085204;27;19927;-85
2021/08/30 04:55:28;;;;;;;;;;;16.30;99.90;;;;;;5098572;27;19923;-84
2021/08/30 04:57:54;;;;;;;;;;;16.30;99.90;;;;;;5105835;28;19926;-84
2021/08/30 05:00:19;;;;;;;;;;;16.30;99.90;;;;;;5105859;27;19985;-85
2021/08/30 05:02:45;;;;;;;;;;;16.30;99.90;;;;;;5077806;27;20022;-85
2021/08/30 05:05:10;;;;;;;;;;;16.40;99.90;;;;;;5105867;27;19923;-84
2021/08/30 05:07:36;;;;;;;;;;;16.40;99.90;;;;;;5094376;28;19919;-85
2021/08/30 05:10:02;;;;;;;;;;;16.40;99.90;;;;;;5094209;28;19935;-85
2021/08/30 05:12:28;;;;;;;;;;;16.40;99.90;;;;;;5094237;28;19923;-85
2021/08/30 05:14:54;;;;;;;;;;;16.40;99.90;;;;;;5078089;28;20374;-84
2021/08/30 05:17:20;;;;;;;;;;;16.40;99.90;;;;;;5094441;27;19960;-84
2021/08/30 05:19:46;;;;;;;;;;;16.40;99.90;;;;;;5094564;28;20473;-84
2021/08/30 05:22:13;;;;;;;;;;;16.40;99.90;;;;;;5083190;28;19959;-86
2021/08/30 05:24:39;;;;;;;;;;;16.40;99.90;;;;;;5097437;27;20051;-85
2021/08/30 05:27:05;;;;;;;;;;;16.40;99.90;;;;;;5096713;27;19931;-85
2021/08/30 05:29:30;;;;;;;;;;;16.40;99.90;;;;;;5095030;27;19937;-85
2021/08/30 05:31:56;;;;;;;;;;;16.40;99.90;;;;;;5094483;28;20362;-84
2021/08/30 05:34:22;;;;;;;;;;;16.40;99.90;;;;;;5078059;27;19927;-84
2021/08/30 05:36:47;;;;;;;;;;;16.50;99.90;;;;;;5097318;27;20002;-85
2021/08/30 05:39:13;;;;;;;;;;;16.50;99.90;;;;;;5114317;27;19923;-84
2021/08/30 05:41:39;;;;;;;;;;;16.50;99.90;;;;;;5091930;28;19968;-85
2021/08/30 05:44:04;;;;;;;;;;;16.50;99.90;;;;;;5111681;28;19927;-84
2021/08/30 05:46:30;;;;;;;;;;;16.60;99.90;;;;;;5095051;27;19967;-84
2021/08/30 05:48:55;;;;;;;;;;;16.60;99.90;;;;;;5077266;28;19928;-85
2021/08/30 05:51:21;;;;;;;;;;;16.60;99.90;;;;;;5093757;28;20295;-84
2021/08/30 05:53:48;;;;;;;;;;;16.60;99.90;;;;;;5077317;28;19923;-85
2021/08/30 05:56:13;;;;;;;;;;;16.60;99.90;;;;;;5118925;28;19923;-85
2021/08/30 05:58:39;;;;;;;;;;;16.70;99.90;;;;;;5077171;28;19984;-85
2021/08/30 06:01:05;;;;;;;;;;;16.70;99.90;;;;;;5094094;28;19924;-85
2021/08/30 06:03:30;;;;;;;;;;;16.70;99.90;;;;;;5112788;27;19919;-84
2021/08/30 06:05:56;;;;;;;;;;;16.60;99.90;;;;;;5089657;27;19930;-85
2021/08/30 06:08:22;;;;;;;;;;;16.70;99.90;;;;;;5098684;27;19934;-84
2021/08/30 06:10:48;;;;;;;;;;;16.70;99.90;;;;;;5117315;27;19949;-84
2021/08/30 06:13:13;;;;;;;;;;;16.70;99.90;;;;;;5116211;27;20255;-84
2021/08/30 06:15:39;;;;;;;;;;;16.70;99.90;;;;;;5122176;27;19923;-85
2021/08/30 06:18:05;;;;;;;;;;;16.70;99.90;;;;;;5097273;27;19919;-85
2021/08/30 06:20:30;;;;;;;;;;;16.70;99.90;;;;;;5102133;27;19923;-84
2021/08/30 06:22:56;;;;;;;;;;;16.70;99.90;;;;;;5116972;27;19948;-85
2021/08/30 06:25:22;;;;;;;;;;;16.70;99.90;;;;;;5114041;27;19972;-85
2021/08/30 06:27:48;;;;;;;;;;;16.70;99.90;;;;;;5097520;27;20306;-85
2021/08/30 06:30:14;;;;;;;;;;;16.70;99.90;;;;;;5099917;27;19927;-85
2021/08/30 06:32:39;;;;;;;;;;;16.80;99.90;;;;;;5101024;27;20013;-85
2021/08/30 06:35:05;;;;;;;;;;;16.80;99.90;;;;;;5127115;27;20038;-85
2021/08/30 06:37:31;;;;;;;;;;;16.80;99.90;;;;;;5116850;27;19925;-85
2021/08/30 06:39:56;;;;;;;;;;;16.90;99.90;;;;;;5116842;27;19925;-85
2021/08/30 06:42:22;;;;;;;;;;;16.90;99.90;;;;;;5099416;27;20343;-90
2021/08/30 06:44:48;;;;;;;;;;;16.90;99.90;;;;;;5108758;27;19919;-91
2021/08/30 06:47:13;;;;;;;;;;;17.00;99.90;;;;;;5112297;27;20385;-91
2021/08/30 06:49:39;;;;;;;;;;;17.00;99.90;;;;;;5111772;27;19927;-92
2021/08/30 06:52:05;;;;;;;;;;;17.00;99.90;;;;;;5088767;27;19923;-92
2021/08/30 06:54:33;;;;;;;;;;;17.10;99.90;;;;;;5109066;27;19967;-90
2021/08/30 06:56:59;;;;;;;;;;;17.10;99.90;;;;;;5103037;27;20014;-92
2021/08/30 06:59:24;;;;;;;;;;;17.20;99.90;;;;;;5109255;27;20027;-94
2021/08/30 07:01:50;;;;;;;;;;;17.20;99.90;;;;;;5108733;27;20393;-91
2021/08/30 07:04:18;;;;;;;;;;;17.20;99.90;;;;;;5112545;27;20396;-92
2021/08/30 07:06:44;;;;;;;;;;;17.20;99.90;;;;;;5090911;27;19923;-90
2021/08/30 07:09:16;;;;;;;;;;;17.20;99.90;;;;;;5101824;27;19930;-91
2021/08/30 07:11:46;;;;;;;;;;;17.30;99.90;;;;;;5106521;27;19919;-91
2021/08/30 07:14:11;;;;;;;;;;;17.30;99.90;;;;;;5106679;27;20283;-91
2021/08/30 07:16:37;;;;;;;;;;;17.30;99.90;;;;;;5108839;27;19961;-91
2021/08/30 07:19:23;;;;;;;;;;;17.40;99.90;;;;;;5103110;27;19923;-89
2021/08/30 07:21:52;;;;;;;;;;;17.40;99.90;;;;;;5118527;27;19954;-90
2021/08/30 07:24:18;;;;;;;;;;;17.50;99.90;;;;;;5118251;27;19965;-91
2021/08/30 07:26:43;;;;;;;;;;;17.50;99.90;;;;;;5113324;27;19958;-92
2021/08/30 07:29:09;;;;;;;;;;;17.60;99.90;;;;;;5119103;27;19919;-91
2021/08/30 07:31:34;;;;;;;;;;;17.60;99.90;;;;;;5114921;27;19915;-87
2021/08/30 07:34:00;;;;;;;;;;;17.70;99.90;;;;;;5127124;27;20278;-85
2021/08/30 07:36:26;;;;;;;;;;;17.70;99.90;;;;;;5087922;27;19934;-85
2021/08/30 07:38:52;;;;;;;;;;;17.70;99.90;;;;;;5094187;27;20294;-86
2021/08/30 07:41:17;;;;;;;;;;;17.80;99.90;;;;;;5109619;27;20339;-85
2021/08/30 07:43:43;;;;;;;;;;;17.80;99.90;;;;;;5109336;27;19923;-85
2021/08/30 07:46:08;;;;;;;;;;;17.80;99.90;;;;;;5082691;27;20773;-85
2021/08/30 07:48:34;;;;;;;;;;;17.80;99.90;;;;;;5111765;27;19999;-85
2021/08/30 07:51:00;;;;;;;;;;;17.80;99.90;;;;;;5116460;27;20052;-85
2021/08/30 07:53:29;;;;;;;;;;;17.90;99.90;;;;;;5115849;27;19923;-85
2021/08/30 07:55:55;;;;;;;;;;;17.90;99.90;;;;;;5082957;27;19919;-85
2021/08/30 07:58:21;;;;;;;;;;;17.90;99.90;;;;;;5109081;27;20279;-85
2021/08/30 08:00:47;;;;;;;;;;;17.90;99.90;;;;;;5120363;27;20059;-85
2021/08/30 08:03:13;;;;;;;;;;;18.00;99.90;;;;;;5106656;27;20019;-85
2021/08/30 08:05:38;;;;;;;;;;;18.00;99.90;;;;;;5099469;27;19923;-85
2021/08/30 08:08:05;;;;;;;;;;;18.00;99.90;;;;;;5100674;27;19923;-83
2021/08/30 08:10:31;;;;;;;;;;;18.10;99.90;;;;;;5099597;27;19992;-85
2021/08/30 08:12:56;;;;;;;;;;;18.00;99.90;;;;;;5096942;27;20777;-85
2021/08/30 08:15:22;;;;;;;;;;;18.10;99.90;;;;;;5101843;27;19980;-84
2021/08/30 08:17:47;;;;;;;;;;;18.00;99.90;;;;;;5099538;27;19927;-86
2021/08/30 08:20:14;;;;;;;;;;;18.10;99.90;;;;;;5091731;27;20362;-84
2021/08/30 08:22:40;;;;;;;;;;;18.10;99.90;;;;;;5112884;27;19938;-84
2021/08/30 08:25:07;;;;;;;;;;;18.10;99.90;;;;;;5093816;27;19923;-84
2021/08/30 08:27:33;;;;;;;;;;;18.10;99.90;;;;;;5079906;27;20368;-85
2021/08/30 08:29:58;;;;;;;;;;;18.20;99.90;;;;;;5100812;27;19927;-84
2021/08/30 08:32:24;;;;;;;;;;;18.20;99.90;;;;;;5110226;27;20673;-85
2021/08/30 08:34:50;;;;;;;;;;;18.20;99.90;;;;;;5101255;27;19967;-84
2021/08/30 08:37:16;;;;;;;;;;;18.20;99.90;;;;;;5098770;27;20374;-85
2021/08/30 08:39:41;;;;;;;;;;;18.20;99.90;;;;;;5077831;27;19922;-84
2021/08/30 08:42:07;;;;;;;;;;;18.20;99.90;;;;;;5090678;27;19919;-84
2021/08/30 08:44:33;;;;;;;;;;;18.30;99.90;;;;;;5119031;27;19926;-85
2021/08/30 08:46:59;;;;;;;;;;;18.30;99.90;;;;;;5126302;27;20027;-84
2021/08/30 08:49:24;;;;;;;;;;;18.30;99.90;;;;;;5094965;27;20010;-85
2021/08/30 08:51:50;;;;;;;;;;;18.40;99.90;;;;;;5115023;27;20385;-85
2021/08/30 08:54:16;;;;;;;;;;;18.50;99.90;;;;;;5117007;27;19931;-85
2021/08/30 08:56:42;;;;;;;;;;;18.50;99.90;;;;;;5084602;27;19935;-85
2021/08/30 08:59:07;;;;;;;;;;;18.60;99.90;;;;;;5082959;27;19923;-84
2021/08/30 09:01:36;;;;;;;;;;;18.60;99.90;;;;;;5083868;27;19927;-84
2021/08/30 09:04:02;;;;;;;;;;;18.70;99.90;;;;;;5084127;27;19926;-85
2021/08/30 09:06:39;;;;;;;;;;;18.70;99.90;;;;;;5088042;27;20400;-84
2021/08/30 09:09:06;;;;;;;;;;;18.80;99.90;;;;;;5093963;27;19919;-84
2021/08/30 09:11:41;;;;;;;;;;;18.80;99.90;;;;;;5094131;27;19923;-84
2021/08/30 09:14:16;;;;;;;;;;;18.80;99.90;;;;;;5114795;27;20002;-86
2021/08/30 09:16:41;;;;;;;;;;;18.80;99.90;;;;;;5112039;27;19934;-85
2021/08/30 09:19:08;;;;;;;;;;;18.80;99.90;;;;;;5123419;27;19927;-85
2021/08/30 09:21:35;;;;;;;;;;;18.80;99.90;;;;;;5102033;27;19972;-85
2021/08/30 09:24:11;;;;;;;;;;;18.80;99.90;;;;;;5114048;27;19923;-86
2021/08/30 09:26:41;;;;;;;;;;;18.80;99.90;;;;;;5094928;27;19999;-85
2021/08/30 09:29:13;;;;;;;;;;;18.80;99.90;;;;;;5106681;27;19920;-86
2021/08/30 09:31:39;;;;;;;;;;;18.80;99.90;;;;;;5093189;27;19950;-85
2021/08/30 09:34:09;;;;;;;;;;;18.80;99.90;;;;;;5099435;27;20294;-85
2021/08/30 09:36:45;;;;;;;;;;;18.80;99.90;;;;;;5112619;28;19920;-84
2021/08/30 09:39:14;;;;;;;;;;;18.90;99.90;;;;;;5100426;27;19919;-86
2021/08/30 09:41:43;;;;;;;;;;;19.00;99.90;;;;;;5104646;27;20002;-85
2021/08/30 09:44:09;;;;;;;;;;;19.10;99.90;;;;;;5092645;27;19927;-85
2021/08/30 09:46:35;;;;;;;;;;;19.00;99.90;;;;;;5140498;27;19919;-85
2021/08/30 09:49:03;;;;;;;;;;;19.00;99.90;;;;;;5084909;27;19930;-85
2021/08/30 09:51:29;;;;;;;;;;;19.00;99.90;;;;;;5097627;27;19935;-85
2021/08/30 09:53:54;;;;;;;;;;;19.10;99.90;;;;;;5089563;27;20007;-85
2021/08/30 09:56:22;;;;;;;;;;;19.10;99.90;;;;;;5088926;27;19919;-86
2021/08/30 09:58:50;;;;;;;;;;;19.10;99.90;;;;;;5095686;27;20014;-85
2021/08/30 10:01:16;;;;;;;;;;;19.10;99.90;;;;;;5087155;27;19930;-86
2021/08/30 10:03:42;;;;;;;;;;;19.20;99.90;;;;;;5085100;27;20608;-85
2021/08/30 10:06:08;;;;;;;;;;;19.20;99.90;;;;;;5100849;27;20339;-86
2021/08/30 10:08:36;;;;;;;;;;;19.10;99.90;;;;;;5125165;27;20400;-86
2021/08/30 10:11:02;;;;;;;;;;;19.00;99.90;;;;;;5106464;27;19975;-87
2021/08/30 10:13:27;;;;;;;;;;;19.00;99.90;;;;;;5107347;27;20611;-85
2021/08/30 10:15:53;;;;;;;;;;;19.00;99.90;;;;;;5098910;27;19927;-85
2021/08/30 10:18:20;;;;;;;;;;;19.00;99.90;;;;;;5087101;27;19919;-85
2021/08/30 10:20:49;;;;;;;;;;;19.00;99.90;;;;;;5100971;27;20011;-86
2021/08/30 10:23:15;;;;;;;;;;;19.10;99.90;;;;;;5110585;27;19976;-85
2021/08/30 10:25:42;;;;;;;;;;;19.10;99.90;;;;;;5106798;27;20335;-86
2021/08/30 10:28:07;;;;;;;;;;;19.10;99.90;;;;;;5103730;27;19923;-85
2021/08/30 10:30:37;;;;;;;;;;;19.20;99.90;;;;;;5119877;27;19927;-85
2021/08/30 10:33:09;;;;;;;;;;;19.20;99.90;;;;;;5099500;27;19927;-85
2021/08/30 10:35:36;;;;;;;;;;;19.20;99.90;;;;;;5098110;27;19926;-85
2021/08/30 10:38:03;;;;;;;;;;;19.20;99.90;;;;;;5104821;27;19969;-85
2021/08/30 10:40:36;;;;;;;;;;;19.30;99.90;;;;;;5099044;27;19923;-85
2021/08/30 10:43:07;;;;;;;;;;;19.30;99.90;;;;;;5100924;27;19919;-85
2021/08/30 10:45:36;;;;;;;;;;;19.40;99.90;;;;;;5103302;27;20336;-85
2021/08/30 10:48:03;;;;;;;;;;;19.50;99.90;;;;;;5106684;27;19923;-85
2021/08/30 10:50:30;;;;;;;;;;;19.50;99.90;;;;;;5105707;27;19927;-86
2021/08/30 10:53:16;;;;;;;;;;;19.50;99.90;;;;;;5098227;27;19929;-86
2021/08/30 10:55:43;;;;;;;;;;;19.40;99.90;;;;;;5105633;27;19931;-85
2021/08/30 10:58:10;;;;;;;;;;;19.20;99.90;;;;;;5105744;27;19924;-85
2021/08/30 11:00:36;;;;;;;;;;;19.10;99.90;;;;;;5120089;27;19923;-85
2021/08/30 11:03:01;;;;;;;;;;;19.10;99.90;;;;;;5095492;27;20171;-86
2021/08/30 11:05:28;;;;;;;;;;;19.20;99.90;;;;;;5097271;27;19972;-86
2021/08/30 11:07:54;;;;;;;;;;;19.30;99.90;;;;;;5106500;27;20406;-85
2021/08/30 11:10:24;;;;;;;;;;;19.40;99.90;;;;;;5102016;27;19927;-85
2021/08/30 11:12:50;;;;;;;;;;;19.40;99.90;;;;;;5100005;27;19923;-85
2021/08/30 11:15:16;;;;;;;;;;;19.30;99.90;;;;;;5110632;27;19923;-85
2021/08/30 11:17:42;;;;;;;;;;;19.40;99.90;;;;;;5101279;27;19938;-85
2021/08/30 11:20:08;;;;;;;;;;;19.30;99.90;;;;;;5092742;27;19930;-85
2021/08/30 11:22:34;;;;;;;;;;;19.40;99.90;;;;;;5121645;27;19972;-85
2021/08/30 11:25:00;;;;;;;;;;;19.40;99.90;;;;;;5095941;27;20391;-85
2021/08/30 11:27:29;;;;;;;;;;;19.40;99.90;;;;;;5115091;27;19931;-85
2021/08/30 11:29:59;;;;;;;;;;;19.40;99.90;;;;;;5095458;27;20021;-85
2021/08/30 11:32:26;;;;;;;;;;;19.40;99.90;;;;;;5100765;27;19923;-85
2021/08/30 11:34:52;;;;;;;;;;;19.40;99.90;;;;;;5112342;27;19959;-84
2021/08/30 11:37:23;;;;;;;;;;;19.40;99.90;;;;;;5117914;27;19968;-86
2021/08/30 11:39:50;;;;;;;;;;;19.40;99.90;;;;;;5100300;27;19927;-85
2021/08/30 11:42:17;;;;;;;;;;;19.50;99.90;;;;;;5079677;27;19923;-84
2021/08/30 11:44:43;;;;;;;;;;;19.50;99.90;;;;;;5111842;27;19923;-85
2021/08/30 11:47:10;;;;;;;;;;;19.60;99.90;;;;;;5103896;27;19922;-86
2021/08/30 11:49:47;;;;;;;;;;;19.70;99.90;;;;;;5111979;27;19952;-85
2021/08/30 11:52:14;;;;;;;;;;;19.70;99.90;;;;;;5110250;27;20413;-85
2021/08/30 11:54:40;;;;;;;;;;;19.70;99.90;;;;;;5111486;27;19922;-85
2021/08/30 11:57:10;;;;;;;;;;;19.80;99.90;;;;;;5105234;27;19923;-84
2021/08/30 11:59:36;;;;;;;;;;;19.90;99.90;;;;;;5112184;27;20370;-86
2021/08/30 12:02:03;;;;;;;;;;;20.00;99.90;;;;;;5081893;27;20010;-85
2021/08/30 12:04:30;;;;;;;;;;;20.00;99.90;;;;;;5114776;27;19973;-85
2021/08/30 12:06:57;;;;;;;;;;;20.20;99.90;;;;;;5124061;27;19919;-85
2021/08/30 12:09:23;;;;;;;;;;;20.20;99.90;;;;;;5101878;27;19927;-85
2021/08/30 12:11:51;;;;;;;;;;;20.20;99.90;;;;;;5110858;27;19948;-85
2021/08/30 12:14:17;;;;;;;;;;;20.30;99.90;;;;;;5100708;27;20002;-86
2021/08/30 12:16:45;;;;;;;;;;;20.40;99.90;;;;;;5091772;27;19926;-85
2021/08/30 12:19:11;;;;;;;;;;;20.40;99.90;;;;;;5098919;27;19926;-85
2021/08/30 12:21:37;;;;;;;;;;;20.30;99.90;;;;;;5080165;27;19923;-85
2021/08/30 12:24:04;;;;;;;;;;;20.30;99.90;;;;;;5093524;27;19923;-85
2021/08/30 12:26:29;;;;;;;;;;;20.30;99.90;;;;;;5097782;27;19934;-85
2021/08/30 12:28:59;;;;;;;;;;;20.20;99.90;;;;;;5111327;27;19923;-85
2021/08/30 12:31:32;;;;;;;;;;;20.20;99.90;;;;;;5101554;27;19934;-85
2021/08/30 12:34:01;;;;;;;;;;;20.10;99.90;;;;;;5107956;27;19933;-85
2021/08/30 12:36:27;;;;;;;;;;;20.20;99.90;;;;;;5094343;27;19923;-84
2021/08/30 12:38:53;;;;;;;;;;;20.20;99.90;;;;;;5113006;27;19934;-86
2021/08/30 12:41:18;;;;;;;;;;;20.10;99.90;;;;;;5101744;27;20377;-86
2021/08/30 12:43:48;;;;;;;;;;;20.00;99.90;;;;;;5111477;27;20285;-85
2021/08/30 12:46:14;;;;;;;;;;;20.00;99.90;;;;;;5077240;27;19924;-85
2021/08/30 12:48:40;;;;;;;;;;;20.00;99.90;;;;;;5094447;27;19928;-86
2021/08/30 12:51:05;;;;;;;;;;;20.00;99.90;;;;;;5113631;27;19926;-86
2021/08/30 12:53:31;;;;;;;;;;;20.00;99.90;;;;;;5108640;27;19923;-86
2021/08/30 12:55:57;;;;;;;;;;;20.00;99.90;;;;;;5102521;27;19927;-85
2021/08/30 12:58:23;;;;;;;;;;;20.00;99.90;;;;;;5108012;27;19919;-85
2021/08/30 13:00:49;;;;;;;;;;;20.00;99.90;;;;;;5099878;27;19973;-86
2021/08/30 13:03:14;;;;;;;;;;;20.10;99.90;;;;;;5125385;27;19929;-86
2021/08/30 13:05:41;;;;;;;;;;;20.10;99.90;;;;;;5098741;27;19927;-85
2021/08/30 13:08:08;;;;;;;;;;;20.10;99.90;;;;;;5100765;27;19923;-85
2021/08/30 13:10:34;;;;;;;;;;;20.00;99.90;;;;;;5098377;27;19927;-84
2021/08/30 13:12:59;;;;;;;;;;;20.00;99.90;;;;;;5112488;27;20378;-85
2021/08/30 13:15:25;;;;;;;;;;;20.00;99.90;;;;;;5092307;27;19944;-85
2021/08/30 13:17:51;;;;;;;;;;;20.00;99.90;;;;;;5103203;28;19920;-85
2021/08/30 13:20:17;;;;;;;;;;;20.10;99.90;;;;;;5093338;28;19929;-85
2021/08/30 13:22:44;;;;;;;;;;;20.20;99.90;;;;;;5097762;27;19968;-85
2021/08/30 13:25:14;;;;;;;;;;;20.20;99.90;;;;;;5099207;27;20370;-86
2021/08/30 13:27:41;;;;;;;;;;;20.10;99.90;;;;;;5107543;27;19923;-84
2021/08/30 13:30:07;;;;;;;;;;;20.00;99.90;;;;;;5100532;27;19935;-84
2021/08/30 13:32:33;;;;;;;;;;;20.00;99.90;;;;;;5110743;27;19919;-86
2021/08/30 13:34:58;;;;;;;;;;;20.00;99.90;;;;;;5109384;27;19972;-86
2021/08/30 13:37:24;;;;;;;;;;;20.00;99.90;;;;;;5083573;27;19930;-86
2021/08/30 13:39:49;;;;;;;;;;;20.10;99.90;;;;;;5107533;27;20037;-84
2021/08/30 13:42:15;;;;;;;;;;;20.20;99.90;;;;;;5117685;28;19923;-85
2021/08/30 13:44:41;;;;;;;;;;;20.20;99.90;;;;;;5093664;27;20302;-84
2021/08/30 13:47:06;;;;;;;;;;;20.20;99.90;;;;;;5146510;27;20513;-85
2021/08/30 13:49:32;;;;;;;;;;;20.20;99.90;;;;;;5101759;27;19927;-86
2021/08/30 13:51:57;;;;;;;;;;;20.20;99.90;;;;;;5075915;28;19974;-85
2021/08/30 13:54:23;;;;;;;;;;;20.10;99.90;;;;;;5076261;28;19923;-85
2021/08/30 13:56:49;;;;;;;;;;;20.00;99.90;;;;;;5095195;27;19923;-85
2021/08/30 13:59:15;;;;;;;;;;;19.90;99.90;;;;;;5091160;28;20068;-85
2021/08/30 14:01:41;;;;;;;;;;;19.90;99.90;;;;;;5105375;27;19919;-85
2021/08/30 14:04:07;;;;;;;;;;;19.80;99.90;;;;;;5104762;27;20075;-85
2021/08/30 14:06:34;;;;;;;;;;;19.80;99.90;;;;;;5101587;27;19930;-86
2021/08/30 14:08:59;;;;;;;;;;;19.80;99.90;;;;;;5113998;27;19972;-85
2021/08/30 14:11:25;;;;;;;;;;;19.90;99.90;;;;;;5109223;27;20799;-85
2021/08/30 14:13:51;;;;;;;;;;;19.80;99.90;;;;;;5093417;28;19924;-84
2021/08/30 14:16:16;;;;;;;;;;;19.80;99.90;;;;;;5088351;27;19975;-85